createdAt,value
2023-02-16T00:00:18.521Z,7.07
2023-02-16T00:01:18.526Z,7.05
2023-02-16T00:02:18.624Z,7.04
2023-02-16T00:03:18.825Z,7.04
2023-02-16T00:04:18.497Z,7.02
2023-02-16T00:05:18.482Z,7.02
2023-02-16T00:06:18.463Z,7.01
2023-02-16T00:07:18.460Z,7.02
2023-02-16T00:08:18.506Z,7.02
2023-02-16T00:09:18.437Z,7.01
2023-02-16T00:10:18.754Z,6.99
2023-02-16T00:11:18.424Z,7.01
2023-02-16T00:12:18.409Z,6.98
2023-02-16T00:13:18.385Z,6.98
2023-02-16T00:14:18.420Z,6.97
2023-02-16T00:15:18.392Z,6.94
2023-02-16T00:16:18.482Z,6.97
2023-02-16T00:17:18.620Z,6.97
2023-02-16T00:18:18.336Z,6.97
2023-02-16T00:19:18.331Z,6.97
2023-02-16T00:20:18.349Z,6.95
2023-02-16T00:21:18.308Z,6.95
2023-02-16T00:22:18.285Z,6.94
2023-02-16T00:23:18.280Z,6.95
2023-02-16T00:24:18.556Z,6.97
2023-02-16T00:25:18.271Z,6.97
2023-02-16T00:26:18.315Z,6.95
2023-02-16T00:27:18.248Z,6.95
2023-02-16T00:28:18.261Z,6.95
2023-02-16T00:29:18.215Z,6.90
2023-02-16T00:30:18.279Z,6.89
2023-02-16T00:31:18.729Z,6.86
2023-02-16T00:32:18.364Z,6.86
2023-02-16T00:33:18.182Z,6.86
2023-02-16T00:34:18.178Z,6.84
2023-02-16T00:35:18.155Z,6.80
2023-02-16T00:36:18.165Z,6.79
2023-02-16T00:37:18.145Z,6.80
2023-02-16T00:38:18.440Z,6.80
2023-02-16T00:39:18.107Z,6.79
2023-02-16T00:40:18.107Z,6.77
2023-02-16T00:41:18.079Z,6.76
2023-02-16T00:42:18.125Z,6.76
2023-02-16T00:43:18.067Z,6.71
2023-02-16T00:44:18.097Z,6.72
2023-02-16T00:45:18.324Z,6.69
2023-02-16T00:46:18.068Z,6.68
2023-02-16T00:47:18.036Z,6.66
2023-02-16T00:48:18.031Z,6.65
2023-02-16T00:49:18.015Z,6.63
2023-02-16T00:50:18.036Z,6.65
2023-02-16T00:51:25.707Z,6.65
2023-02-16T00:52:17.987Z,6.65
2023-02-16T00:53:17.972Z,6.63
2023-02-16T00:54:17.961Z,6.63
2023-02-16T00:55:17.945Z,6.61
2023-02-16T00:56:17.999Z,6.59
2023-02-16T00:57:17.966Z,6.58
2023-02-16T00:58:18.199Z,6.56
2023-02-16T00:59:17.911Z,6.56
2023-02-16T01:00:17.938Z,6.53
2023-02-16T01:01:17.952Z,6.54
2023-02-16T01:02:17.923Z,6.51
2023-02-16T01:03:17.868Z,6.53
2023-02-16T01:04:17.885Z,6.50
2023-02-16T01:05:17.844Z,6.47
2023-02-16T01:06:17.842Z,6.47
2023-02-16T01:07:17.825Z,6.44
2023-02-16T01:08:17.858Z,6.44
2023-02-16T01:09:17.799Z,6.44
2023-02-16T01:10:18.083Z,6.41
2023-02-16T01:11:17.768Z,6.41
2023-02-16T01:12:17.762Z,6.38
2023-02-16T01:13:17.746Z,6.35
2023-02-16T01:14:17.786Z,6.33
2023-02-16T01:15:17.756Z,6.32
2023-02-16T01:16:17.781Z,6.32
2023-02-16T01:17:17.713Z,6.33
2023-02-16T01:18:17.704Z,6.30
2023-02-16T01:19:17.691Z,6.29
2023-02-16T01:20:17.737Z,6.29
2023-02-16T01:21:17.673Z,6.29
2023-02-16T01:22:17.995Z,6.29
2023-02-16T01:23:17.651Z,6.28
2023-02-16T01:24:17.638Z,6.26
2023-02-16T01:25:17.623Z,6.22
2023-02-16T01:26:17.712Z,6.22
2023-02-16T01:27:17.615Z,6.19
2023-02-16T01:28:17.643Z,6.16
2023-02-16T01:29:17.899Z,6.14
2023-02-16T01:30:17.677Z,6.14
2023-02-16T01:31:17.707Z,6.11
2023-02-16T01:32:17.754Z,6.11
2023-02-16T01:33:17.545Z,6.10
2023-02-16T01:34:17.528Z,6.10
2023-02-16T01:35:17.522Z,6.10
2023-02-16T01:36:17.813Z,6.10
2023-02-16T01:37:17.512Z,6.09
2023-02-16T01:38:18.682Z,6.07
2023-02-16T01:39:17.490Z,6.06
2023-02-16T01:40:17.474Z,6.04
2023-02-16T01:41:17.480Z,6.04
2023-02-16T01:42:17.464Z,6.04
2023-02-16T01:43:17.708Z,6.04
2023-02-16T01:44:17.456Z,6.04
2023-02-16T01:45:17.453Z,6.01
2023-02-16T01:46:17.481Z,6.01
2023-02-16T01:47:17.414Z,6.00
2023-02-16T01:48:17.400Z,6.00
2023-02-16T01:49:17.375Z,5.98
2023-02-16T01:50:17.904Z,5.95
2023-02-16T01:51:17.380Z,5.96
2023-02-16T01:52:17.351Z,5.93
2023-02-16T01:53:17.348Z,5.92
2023-02-16T01:54:17.343Z,5.92
2023-02-16T01:55:17.328Z,5.91
2023-02-16T01:56:17.341Z,5.88
2023-02-16T01:57:17.627Z,5.89
2023-02-16T01:58:17.289Z,5.91
2023-02-16T01:59:17.277Z,5.86
2023-02-16T02:00:17.261Z,5.86
2023-02-16T02:01:17.270Z,5.83
2023-02-16T02:02:17.318Z,5.83
2023-02-16T02:03:17.254Z,5.83
2023-02-16T02:04:17.510Z,5.81
2023-02-16T02:05:17.210Z,5.78
2023-02-16T02:06:17.217Z,5.77
2023-02-16T02:07:17.205Z,5.75
2023-02-16T02:08:17.212Z,5.74
2023-02-16T02:09:17.172Z,5.73
2023-02-16T02:10:17.173Z,5.71
2023-02-16T02:11:17.427Z,5.68
2023-02-16T02:12:17.135Z,5.70
2023-02-16T02:13:17.129Z,5.67
2023-02-16T02:14:17.169Z,5.67
2023-02-16T02:15:17.105Z,5.66
2023-02-16T02:16:17.148Z,5.67
2023-02-16T02:17:17.088Z,5.68
2023-02-16T02:18:17.372Z,5.67
2023-02-16T02:19:17.062Z,5.67
2023-02-16T02:20:17.114Z,5.64
2023-02-16T02:21:17.054Z,5.66
2023-02-16T02:22:17.036Z,5.66
2023-02-16T02:23:17.066Z,5.64
2023-02-16T02:24:17.027Z,5.63
2023-02-16T02:25:17.002Z,5.64
2023-02-16T02:26:17.040Z,5.64
2023-02-16T02:27:16.974Z,5.64
2023-02-16T02:28:17.261Z,5.63
2023-02-16T02:29:16.973Z,5.60
2023-02-16T02:30:17.095Z,5.60
2023-02-16T02:31:17.136Z,5.63
2023-02-16T02:32:17.057Z,5.60
2023-02-16T02:33:16.924Z,5.60
2023-02-16T02:34:16.915Z,5.59
2023-02-16T02:35:16.897Z,5.57
2023-02-16T02:36:16.925Z,5.57
2023-02-16T02:37:16.877Z,5.59
2023-02-16T02:38:16.911Z,5.59
2023-02-16T02:39:16.854Z,5.59
2023-02-16T02:40:17.143Z,5.59
2023-02-16T02:41:16.859Z,5.57
2023-02-16T02:42:16.824Z,5.60
2023-02-16T02:43:16.818Z,5.59
2023-02-16T02:44:16.828Z,5.59
2023-02-16T02:45:16.799Z,5.56
2023-02-16T02:46:16.807Z,5.55
2023-02-16T02:47:17.064Z,5.53
2023-02-16T02:48:16.763Z,5.55
2023-02-16T02:49:16.761Z,5.55
2023-02-16T02:50:16.760Z,5.50
2023-02-16T02:51:16.732Z,5.50
2023-02-16T02:52:16.742Z,5.49
2023-02-16T02:53:16.727Z,5.49
2023-02-16T02:54:16.989Z,5.48
2023-02-16T02:55:16.695Z,5.49
2023-02-16T02:56:16.732Z,5.46
2023-02-16T02:57:16.683Z,5.43
2023-02-16T02:58:16.664Z,5.45
2023-02-16T02:59:16.649Z,5.43
2023-02-16T03:00:16.661Z,5.40
2023-02-16T03:01:16.999Z,5.40
2023-02-16T03:02:16.700Z,5.35
2023-02-16T03:03:16.609Z,5.37
2023-02-16T03:04:16.596Z,5.38
2023-02-16T03:05:16.596Z,5.43
2023-02-16T03:06:16.576Z,5.45
2023-02-16T03:07:16.581Z,5.46
2023-02-16T03:08:16.882Z,5.43
2023-02-16T03:09:16.556Z,5.43
2023-02-16T03:10:16.532Z,5.43
2023-02-16T03:11:16.533Z,5.41
2023-02-16T03:12:16.535Z,5.40
2023-02-16T03:13:16.519Z,5.40
2023-02-16T03:14:16.540Z,5.40
2023-02-16T03:15:16.771Z,5.43
2023-02-16T03:16:16.485Z,5.43
2023-02-16T03:17:16.472Z,5.41
2023-02-16T03:18:16.483Z,5.41
2023-02-16T03:19:16.435Z,5.43
2023-02-16T03:20:16.460Z,5.43
2023-02-16T03:21:16.417Z,5.41
2023-02-16T03:22:16.697Z,5.45
2023-02-16T03:23:16.395Z,5.43
2023-02-16T03:24:16.382Z,5.45
2023-02-16T03:25:16.379Z,5.45
2023-02-16T03:26:16.388Z,5.45
2023-02-16T03:27:16.352Z,5.46
2023-02-16T03:28:16.331Z,5.45
2023-02-16T03:29:16.629Z,5.46
2023-02-16T03:30:16.420Z,5.48
2023-02-16T03:31:16.526Z,5.48
2023-02-16T03:32:16.391Z,5.48
2023-02-16T03:33:16.285Z,5.52
2023-02-16T03:34:16.289Z,5.50
2023-02-16T03:35:16.276Z,5.50
2023-02-16T03:36:16.545Z,5.50
2023-02-16T03:37:16.254Z,5.50
2023-02-16T03:38:16.261Z,5.49
2023-02-16T03:39:16.227Z,5.49
2023-02-16T03:40:16.217Z,5.46
2023-02-16T03:41:16.202Z,5.48
2023-02-16T03:42:16.204Z,5.49
2023-02-16T03:43:16.472Z,5.49
2023-02-16T03:44:16.202Z,5.50
2023-02-16T03:45:16.171Z,5.49
2023-02-16T03:46:16.253Z,5.48
2023-02-16T03:47:16.148Z,5.49
2023-02-16T03:48:16.137Z,5.48
2023-02-16T03:49:16.121Z,5.48
2023-02-16T03:50:16.416Z,5.48
2023-02-16T03:51:16.126Z,5.48
2023-02-16T03:52:16.081Z,5.46
2023-02-16T03:53:18.243Z,5.48
2023-02-16T03:54:16.076Z,5.43
2023-02-16T03:55:16.073Z,5.45
2023-02-16T03:56:16.092Z,5.45
2023-02-16T03:57:16.349Z,5.45
2023-02-16T03:58:16.031Z,5.45
2023-02-16T03:59:16.027Z,5.45
2023-02-16T04:00:16.022Z,5.45
2023-02-16T04:01:16.014Z,5.45
2023-02-16T04:02:16.085Z,5.45
2023-02-16T04:03:15.985Z,5.41
2023-02-16T04:04:16.320Z,5.40
2023-02-16T04:05:15.965Z,5.37
2023-02-16T04:06:15.948Z,5.38
2023-02-16T04:07:15.947Z,5.35
2023-02-16T04:08:15.986Z,5.32
2023-02-16T04:09:15.924Z,5.30
2023-02-16T04:10:15.916Z,5.25
2023-02-16T04:11:16.222Z,5.27
2023-02-16T04:12:15.885Z,5.23
2023-02-16T04:13:15.894Z,5.22
2023-02-16T04:14:15.902Z,5.20
2023-02-16T04:15:15.867Z,5.22
2023-02-16T04:16:15.874Z,5.22
2023-02-16T04:17:15.844Z,5.19
2023-02-16T04:18:16.101Z,5.19
2023-02-16T04:19:15.827Z,5.19
2023-02-16T04:20:15.828Z,5.20
2023-02-16T04:21:15.818Z,5.20
2023-02-16T04:22:15.784Z,5.22
2023-02-16T04:23:15.775Z,5.22
2023-02-16T04:24:15.783Z,5.22
2023-02-16T04:25:16.041Z,5.23
2023-02-16T04:26:15.779Z,5.25
2023-02-16T04:27:15.767Z,5.25
2023-02-16T04:28:15.726Z,5.27
2023-02-16T04:29:15.740Z,5.27
2023-02-16T04:30:15.732Z,5.27
2023-02-16T04:31:15.809Z,5.28
2023-02-16T04:32:16.029Z,5.28
2023-02-16T04:33:15.681Z,5.28
2023-02-16T04:34:15.662Z,5.30
2023-02-16T04:35:15.664Z,5.30
2023-02-16T04:36:15.629Z,5.30
2023-02-16T04:37:15.623Z,5.34
2023-02-16T04:38:15.643Z,5.32
2023-02-16T04:39:15.881Z,5.31
2023-02-16T04:40:15.610Z,5.31
2023-02-16T04:41:15.603Z,5.30
2023-02-16T04:42:15.578Z,5.30
2023-02-16T04:43:15.561Z,5.27
2023-02-16T04:44:15.584Z,5.25
2023-02-16T04:45:15.565Z,5.23
2023-02-16T04:46:15.847Z,5.23
2023-02-16T04:47:15.547Z,5.22
2023-02-16T04:48:15.541Z,5.22
2023-02-16T04:49:15.499Z,5.20
2023-02-16T04:50:15.531Z,5.19
2023-02-16T04:51:15.484Z,5.19
2023-02-16T04:52:15.478Z,5.16
2023-02-16T04:53:15.746Z,5.14
2023-02-16T04:54:15.438Z,5.16
2023-02-16T04:55:15.429Z,5.14
2023-02-16T04:56:15.449Z,5.14
2023-02-16T04:57:15.430Z,5.16
2023-02-16T04:58:15.399Z,5.14
2023-02-16T04:59:15.406Z,5.16
2023-02-16T05:00:15.681Z,5.17
2023-02-16T05:01:15.402Z,5.16
2023-02-16T05:02:15.415Z,5.16
2023-02-16T05:03:15.381Z,5.12
2023-02-16T05:04:15.376Z,5.12
2023-02-16T05:05:15.332Z,5.10
2023-02-16T05:06:15.326Z,5.10
2023-02-16T05:07:15.608Z,5.10
2023-02-16T05:08:15.341Z,5.07
2023-02-16T05:09:15.292Z,5.07
2023-02-16T05:10:15.366Z,5.04
2023-02-16T05:11:15.271Z,5.02
2023-02-16T05:12:15.268Z,4.99
2023-02-16T05:13:15.269Z,5.01
2023-02-16T05:14:15.608Z,4.99
2023-02-16T05:15:15.236Z,4.96
2023-02-16T05:16:15.294Z,4.95
2023-02-16T05:17:15.242Z,4.95
2023-02-16T05:18:15.231Z,4.89
2023-02-16T05:19:16.124Z,4.89
2023-02-16T05:20:15.226Z,4.88
2023-02-16T05:21:15.444Z,4.86
2023-02-16T05:22:15.155Z,4.86
2023-02-16T05:23:15.171Z,4.88
2023-02-16T05:24:15.146Z,4.88
2023-02-16T05:25:15.131Z,4.91
2023-02-16T05:26:15.146Z,4.91
2023-02-16T05:27:15.114Z,4.89
2023-02-16T05:28:15.424Z,4.92
2023-02-16T05:29:15.075Z,4.92
2023-02-16T05:30:15.082Z,4.94
2023-02-16T05:31:15.189Z,4.96
2023-02-16T05:32:15.095Z,4.96
2023-02-16T05:33:15.041Z,5.01
2023-02-16T05:34:15.027Z,5.04
2023-02-16T05:35:15.327Z,5.04
2023-02-16T05:36:15.015Z,5.04
2023-02-16T05:37:15.029Z,5.05
2023-02-16T05:38:15.019Z,5.07
2023-02-16T05:39:14.984Z,5.12
2023-02-16T05:40:14.979Z,5.17
2023-02-16T05:41:14.962Z,5.20
2023-02-16T05:42:15.232Z,5.22
2023-02-16T05:43:14.935Z,5.23
2023-02-16T05:44:14.965Z,5.25
2023-02-16T05:45:14.926Z,5.27
2023-02-16T05:46:14.934Z,5.30
2023-02-16T05:47:14.897Z,5.28
2023-02-16T05:48:14.904Z,5.27
2023-02-16T05:49:15.162Z,5.27
2023-02-16T05:50:14.892Z,5.27
2023-02-16T05:51:14.867Z,5.27
2023-02-16T05:52:14.841Z,5.27
2023-02-16T05:53:14.837Z,5.28
2023-02-16T05:54:14.838Z,5.27
2023-02-16T05:55:14.842Z,5.28
2023-02-16T05:56:15.175Z,5.27
2023-02-16T05:57:14.802Z,5.23
2023-02-16T05:58:14.789Z,5.23
2023-02-16T05:59:14.782Z,5.25
2023-02-16T06:00:14.791Z,5.20
2023-02-16T06:01:14.772Z,5.19
2023-02-16T06:02:14.783Z,5.17
2023-02-16T06:03:14.739Z,5.17
2023-02-16T06:04:14.721Z,5.17
2023-02-16T06:05:14.734Z,5.17
2023-02-16T06:06:14.727Z,5.14
2023-02-16T06:07:15.057Z,5.14
2023-02-16T06:08:14.711Z,5.16
2023-02-16T06:09:14.956Z,5.16
2023-02-16T06:10:14.683Z,5.16
2023-02-16T06:11:14.654Z,5.14
2023-02-16T06:12:14.643Z,5.14
2023-02-16T06:13:14.651Z,5.10
2023-02-16T06:14:14.682Z,5.09
2023-02-16T06:15:14.641Z,5.09
2023-02-16T06:16:14.632Z,5.09
2023-02-16T06:17:14.603Z,5.07
2023-02-16T06:18:14.596Z,5.05
2023-02-16T06:19:14.585Z,5.05
2023-02-16T06:20:14.599Z,5.04
2023-02-16T06:21:14.877Z,5.04
2023-02-16T06:22:14.536Z,5.04
2023-02-16T06:23:14.533Z,5.01
2023-02-16T06:24:14.546Z,5.01
2023-02-16T06:25:14.516Z,5.02
2023-02-16T06:26:14.539Z,5.04
2023-02-16T06:27:14.497Z,5.02
2023-02-16T06:28:14.496Z,5.05
2023-02-16T06:29:14.502Z,5.05
2023-02-16T06:30:14.537Z,5.07
2023-02-16T06:31:14.527Z,5.09
2023-02-16T06:32:14.586Z,5.10
2023-02-16T06:33:14.703Z,5.13
2023-02-16T06:34:14.413Z,5.13
2023-02-16T06:35:14.414Z,5.14
2023-02-16T06:36:14.387Z,5.16
2023-02-16T06:37:14.410Z,5.17
2023-02-16T06:38:14.426Z,5.16
2023-02-16T06:39:14.384Z,5.17
2023-02-16T06:40:14.639Z,5.19
2023-02-16T06:41:14.357Z,5.22
2023-02-16T06:42:14.379Z,5.22
2023-02-16T06:43:14.320Z,5.27
2023-02-16T06:44:14.343Z,5.30
2023-02-16T06:45:14.311Z,5.32
2023-02-16T06:46:14.339Z,5.34
2023-02-16T06:47:14.564Z,5.38
2023-02-16T06:48:14.258Z,5.41
2023-02-16T06:49:14.255Z,5.43
2023-02-16T06:50:14.285Z,5.46
2023-02-16T06:51:14.239Z,5.48
2023-02-16T06:52:14.254Z,5.49
2023-02-16T06:53:14.218Z,5.49
2023-02-16T06:54:14.495Z,5.52
2023-02-16T06:55:14.194Z,5.50
2023-02-16T06:56:14.237Z,5.50
2023-02-16T06:57:14.187Z,5.52
2023-02-16T06:58:14.229Z,5.52
2023-02-16T06:59:14.151Z,5.52
2023-02-16T07:00:14.171Z,5.50
2023-02-16T07:01:14.245Z,5.52
2023-02-16T07:02:14.166Z,5.52
2023-02-16T07:03:14.216Z,5.52
2023-02-16T07:04:14.154Z,5.50
2023-02-16T07:05:14.097Z,5.53
2023-02-16T07:06:14.091Z,5.53
2023-02-16T07:07:14.359Z,5.55
2023-02-16T07:08:14.090Z,5.55
2023-02-16T07:09:14.038Z,5.55
2023-02-16T07:10:14.030Z,5.55
2023-02-16T07:11:14.034Z,5.55
2023-02-16T07:12:14.044Z,5.55
2023-02-16T07:13:14.036Z,5.55
2023-02-16T07:14:14.318Z,5.57
2023-02-16T07:15:14.001Z,5.56
2023-02-16T07:16:14.060Z,5.57
2023-02-16T07:17:13.963Z,5.57
2023-02-16T07:18:13.961Z,5.57
2023-02-16T07:19:13.985Z,5.59
2023-02-16T07:20:14.037Z,5.59
2023-02-16T07:21:14.210Z,5.60
2023-02-16T07:22:13.913Z,5.64
2023-02-16T07:23:13.931Z,5.64
2023-02-16T07:24:13.894Z,5.67
2023-02-16T07:25:13.936Z,5.66
2023-02-16T07:26:13.932Z,5.68
2023-02-16T07:27:13.872Z,5.71
2023-02-16T07:28:14.146Z,5.71
2023-02-16T07:29:13.835Z,5.73
2023-02-16T07:30:13.865Z,5.74
2023-02-16T07:31:13.955Z,5.73
2023-02-16T07:32:13.966Z,5.73
2023-02-16T07:33:13.809Z,5.73
2023-02-16T07:34:13.821Z,5.73
2023-02-16T07:35:14.082Z,5.74
2023-02-16T07:36:13.805Z,5.75
2023-02-16T07:37:13.765Z,5.74
2023-02-16T07:38:13.780Z,5.75
2023-02-16T07:39:13.737Z,5.78
2023-02-16T07:40:13.737Z,5.83
2023-02-16T07:41:13.971Z,5.85
2023-02-16T07:42:13.996Z,5.88
2023-02-16T07:43:13.688Z,5.89
2023-02-16T07:44:13.721Z,5.93
2023-02-16T07:45:13.673Z,5.96
2023-02-16T07:46:13.750Z,6.03
2023-02-16T07:47:13.713Z,6.07
2023-02-16T07:48:13.654Z,6.06
2023-02-16T07:49:13.908Z,6.10
2023-02-16T07:50:13.658Z,6.11
2023-02-16T07:51:13.608Z,6.11
2023-02-16T07:52:13.612Z,6.14
2023-02-16T07:53:13.593Z,6.16
2023-02-16T07:54:13.575Z,6.18
2023-02-16T07:55:13.600Z,6.19
2023-02-16T07:56:13.890Z,6.21
2023-02-16T07:57:13.576Z,6.28
2023-02-16T07:58:13.554Z,6.28
2023-02-16T07:59:13.561Z,6.29
2023-02-16T08:00:13.517Z,6.32
2023-02-16T08:01:15.771Z,6.33
2023-02-16T08:02:13.592Z,6.35
2023-02-16T08:03:13.874Z,6.38
2023-02-16T08:04:13.494Z,6.40
2023-02-16T08:05:13.463Z,6.43
2023-02-16T08:06:13.466Z,6.44
2023-02-16T08:07:13.468Z,6.47
2023-02-16T08:08:13.483Z,6.47
2023-02-16T08:09:13.428Z,6.51
2023-02-16T08:10:13.720Z,6.53
2023-02-16T08:11:13.412Z,6.56
2023-02-16T08:12:14.414Z,6.59
2023-02-16T08:13:13.442Z,6.61
2023-02-16T08:14:13.456Z,6.65
2023-02-16T08:15:13.382Z,6.66
2023-02-16T08:16:13.443Z,6.72
2023-02-16T08:17:13.387Z,6.77
2023-02-16T08:18:13.348Z,6.83
2023-02-16T08:19:13.321Z,6.84
2023-02-16T08:20:13.357Z,6.86
2023-02-16T08:21:13.366Z,6.87
2023-02-16T08:22:13.313Z,6.89
2023-02-16T08:23:13.591Z,6.90
2023-02-16T08:24:13.286Z,6.95
2023-02-16T08:25:13.301Z,6.97
2023-02-16T08:26:14.131Z,6.98
2023-02-16T08:27:13.271Z,6.95
2023-02-16T08:28:13.244Z,6.94
2023-02-16T08:29:13.336Z,6.95
2023-02-16T08:30:13.284Z,6.91
2023-02-16T08:31:13.266Z,6.94
2023-02-16T08:32:13.383Z,6.94
2023-02-16T08:33:13.189Z,6.94
2023-02-16T08:34:13.180Z,6.94
2023-02-16T08:35:13.443Z,6.91
2023-02-16T08:36:13.168Z,6.90
2023-02-16T08:37:13.170Z,6.90
2023-02-16T08:38:13.181Z,6.89
2023-02-16T08:39:13.154Z,6.91
2023-02-16T08:40:13.131Z,6.91
2023-02-16T08:41:13.109Z,6.91
2023-02-16T08:42:13.097Z,6.94
2023-02-16T08:43:13.066Z,6.97
2023-02-16T08:44:13.125Z,7.01
2023-02-16T08:45:13.042Z,6.98
2023-02-16T08:46:13.132Z,6.99
2023-02-16T08:47:13.311Z,7.04
2023-02-16T08:48:13.029Z,7.08
2023-02-16T08:49:13.029Z,7.05
2023-02-16T08:50:13.038Z,7.04
2023-02-16T08:51:12.989Z,7.05
2023-02-16T08:52:12.996Z,7.12
2023-02-16T08:53:12.968Z,7.16
2023-02-16T08:54:13.294Z,7.16
2023-02-16T08:55:12.955Z,7.22
2023-02-16T08:56:12.972Z,7.23
2023-02-16T08:57:12.942Z,7.24
2023-02-16T08:58:12.917Z,7.31
2023-02-16T08:59:12.889Z,7.37
2023-02-16T09:00:12.889Z,7.40
2023-02-16T09:01:13.256Z,7.45
2023-02-16T09:02:12.971Z,7.55
2023-02-16T09:03:12.857Z,7.58
2023-02-16T09:04:12.866Z,7.62
2023-02-16T09:05:12.885Z,7.55
2023-02-16T09:06:12.848Z,7.50
2023-02-16T09:07:12.814Z,7.49
2023-02-16T09:08:12.837Z,7.42
2023-02-16T09:09:12.815Z,7.45
2023-02-16T09:10:12.797Z,7.47
2023-02-16T09:11:12.778Z,7.44
2023-02-16T09:12:12.828Z,7.42
2023-02-16T09:13:12.757Z,7.42
2023-02-16T09:14:13.065Z,7.40
2023-02-16T09:15:12.770Z,7.40
2023-02-16T09:16:12.892Z,7.37
2023-02-16T09:17:12.717Z,7.37
2023-02-16T09:18:12.743Z,7.35
2023-02-16T09:19:12.693Z,7.40
2023-02-16T09:20:12.713Z,7.40
2023-02-16T09:21:13.002Z,7.40
2023-02-16T09:22:13.808Z,7.40
2023-02-16T09:23:12.695Z,7.42
2023-02-16T09:24:12.661Z,7.40
2023-02-16T09:25:12.620Z,7.41
2023-02-16T09:26:12.678Z,7.44
2023-02-16T09:27:12.611Z,7.49
2023-02-16T09:28:12.880Z,7.52
2023-02-16T09:29:12.763Z,7.55
2023-02-16T09:30:12.633Z,7.56
2023-02-16T09:31:12.680Z,7.59
2023-02-16T09:32:12.604Z,7.60
2023-02-16T09:33:12.544Z,7.62
2023-02-16T09:34:12.539Z,7.66
2023-02-16T09:35:12.570Z,7.69
2023-02-16T09:36:12.518Z,7.72
2023-02-16T09:37:12.508Z,7.75
2023-02-16T09:38:12.545Z,7.77
2023-02-16T09:39:12.537Z,7.78
2023-02-16T09:40:12.474Z,7.78
2023-02-16T09:41:12.737Z,7.84
2023-02-16T09:42:12.482Z,7.84
2023-02-16T09:43:12.432Z,7.89
2023-02-16T09:44:12.470Z,7.90
2023-02-16T09:45:12.415Z,7.92
2023-02-16T09:46:12.493Z,7.93
2023-02-16T09:47:12.391Z,7.94
2023-02-16T09:48:12.401Z,7.99
2023-02-16T09:49:12.439Z,8.02
2023-02-16T09:50:12.403Z,8.08
2023-02-16T09:51:12.358Z,8.14
2023-02-16T09:52:12.360Z,8.17
2023-02-16T09:53:12.620Z,8.25
2023-02-16T09:54:12.349Z,8.30
2023-02-16T09:55:12.341Z,8.33
2023-02-16T09:56:12.377Z,8.37
2023-02-16T09:57:12.343Z,8.40
2023-02-16T09:58:12.306Z,8.47
2023-02-16T09:59:12.294Z,8.45
2023-02-16T10:00:12.295Z,8.50
2023-02-16T10:01:12.308Z,8.55
2023-02-16T10:02:12.384Z,8.62
2023-02-16T10:03:12.226Z,8.71
2023-02-16T10:04:12.219Z,8.76
2023-02-16T10:05:12.482Z,8.87
2023-02-16T10:06:12.226Z,8.93
2023-02-16T10:07:12.190Z,8.99
2023-02-16T10:08:12.220Z,9.02
2023-02-16T10:09:12.165Z,9.04
2023-02-16T10:10:12.183Z,9.05
2023-02-16T10:11:12.153Z,9.09
2023-02-16T10:12:12.426Z,9.12
2023-02-16T10:13:12.157Z,9.16
2023-02-16T10:14:12.169Z,9.27
2023-02-16T10:15:12.112Z,9.31
2023-02-16T10:16:12.185Z,9.34
2023-02-16T10:17:12.087Z,9.35
2023-02-16T10:18:12.099Z,9.39
2023-02-16T10:19:12.361Z,9.40
2023-02-16T10:20:12.104Z,9.39
2023-02-16T10:21:12.072Z,9.35
2023-02-16T10:22:12.856Z,9.35
2023-02-16T10:23:12.038Z,9.38
2023-02-16T10:24:12.139Z,9.35
2023-02-16T10:25:12.007Z,9.32
2023-02-16T10:26:12.068Z,9.34
2023-02-16T10:27:11.996Z,9.34
2023-02-16T10:28:11.981Z,9.34
2023-02-16T10:29:11.958Z,9.35
2023-02-16T10:30:11.983Z,9.35
2023-02-16T10:31:12.062Z,9.32
2023-02-16T10:32:12.345Z,9.31
2023-02-16T10:33:11.914Z,9.32
2023-02-16T10:34:11.931Z,9.30
2023-02-16T10:35:11.917Z,9.27
2023-02-16T10:36:11.915Z,9.28
2023-02-16T10:37:11.882Z,9.25
2023-02-16T10:38:12.689Z,9.25
2023-02-16T10:39:12.198Z,9.28
2023-02-16T10:40:11.877Z,9.30
2023-02-16T10:41:11.850Z,9.32
2023-02-16T10:42:11.854Z,9.32
2023-02-16T10:43:11.814Z,9.34
2023-02-16T10:44:11.871Z,9.35
2023-02-16T10:45:11.805Z,9.35
2023-02-16T10:46:12.088Z,9.35
2023-02-16T10:47:11.839Z,9.40
2023-02-16T10:48:11.813Z,9.42
2023-02-16T10:49:11.759Z,9.43
2023-02-16T10:50:11.804Z,9.45
2023-02-16T10:51:11.738Z,9.45
2023-02-16T10:52:11.730Z,9.46
2023-02-16T10:53:11.719Z,9.49
2023-02-16T10:54:11.716Z,9.50
2023-02-16T10:55:11.696Z,9.52
2023-02-16T10:56:11.734Z,9.52
2023-02-16T10:57:11.686Z,9.52
2023-02-16T10:58:11.709Z,9.57
2023-02-16T10:59:12.037Z,9.58
2023-02-16T11:00:11.668Z,9.57
2023-02-16T11:01:11.694Z,9.58
2023-02-16T11:02:11.685Z,9.61
2023-02-16T11:03:11.634Z,9.63
2023-02-16T11:04:11.626Z,9.66
2023-02-16T11:05:11.668Z,9.67
2023-02-16T11:06:11.864Z,9.68
2023-02-16T11:07:11.573Z,9.71
2023-02-16T11:08:11.639Z,9.71
2023-02-16T11:09:11.560Z,9.73
2023-02-16T11:10:11.559Z,9.75
2023-02-16T11:11:11.542Z,9.76
2023-02-16T11:12:11.537Z,9.78
2023-02-16T11:13:11.795Z,9.79
2023-02-16T11:14:11.602Z,9.81
2023-02-16T11:15:11.522Z,9.81
2023-02-16T11:16:11.563Z,9.85
2023-02-16T11:17:11.477Z,9.89
2023-02-16T11:18:11.475Z,9.91
2023-02-16T11:19:11.443Z,9.89
2023-02-16T11:20:11.828Z,9.89
2023-02-16T11:21:11.461Z,9.91
2023-02-16T11:22:11.423Z,9.89
2023-02-16T11:23:11.414Z,9.86
2023-02-16T11:24:11.408Z,9.88
2023-02-16T11:25:11.423Z,9.88
2023-02-16T11:26:11.416Z,9.86
2023-02-16T11:27:11.707Z,9.89
2023-02-16T11:28:11.384Z,9.91
2023-02-16T11:29:11.360Z,9.91
2023-02-16T11:30:11.431Z,9.96
2023-02-16T11:31:11.517Z,10.00
2023-02-16T11:32:11.386Z,10.01
2023-02-16T11:33:11.402Z,10.04
2023-02-16T11:34:11.583Z,10.03
2023-02-16T11:35:11.276Z,9.99
2023-02-16T11:36:11.290Z,9.97
2023-02-16T11:37:11.272Z,9.99
2023-02-16T11:38:11.314Z,9.99
2023-02-16T11:39:11.345Z,9.96
2023-02-16T11:40:11.240Z,9.97
2023-02-16T11:41:11.523Z,9.99
2023-02-16T11:42:11.235Z,10.03
2023-02-16T11:43:11.214Z,10.07
2023-02-16T11:44:11.262Z,10.07
2023-02-16T11:45:11.177Z,10.12
2023-02-16T11:46:11.213Z,10.17
2023-02-16T11:47:11.156Z,10.18
2023-02-16T11:48:11.138Z,10.17
2023-02-16T11:49:11.130Z,10.14
2023-02-16T11:50:11.176Z,10.15
2023-02-16T11:51:11.112Z,10.17
2023-02-16T11:52:11.095Z,10.15
2023-02-16T11:53:11.393Z,10.17
2023-02-16T11:54:11.094Z,10.15
2023-02-16T11:55:11.085Z,10.17
2023-02-16T11:56:11.122Z,10.18
2023-02-16T11:57:11.081Z,10.19
2023-02-16T11:58:11.046Z,10.19
2023-02-16T11:59:11.075Z,10.18
2023-02-16T12:00:11.029Z,10.14
2023-02-16T12:01:11.083Z,10.06
2023-02-16T12:02:11.068Z,10.03
2023-02-16T12:03:11.021Z,9.99
2023-02-16T12:04:11.026Z,9.99
2023-02-16T12:05:11.293Z,9.99
2023-02-16T12:06:10.988Z,9.97
2023-02-16T12:07:10.949Z,9.94
2023-02-16T12:08:11.024Z,9.89
2023-02-16T12:09:11.009Z,9.88
2023-02-16T12:10:10.941Z,9.86
2023-02-16T12:11:10.940Z,9.86
2023-02-16T12:12:11.242Z,9.85
2023-02-16T12:13:10.909Z,9.81
2023-02-16T12:14:10.947Z,9.76
2023-02-16T12:15:10.887Z,9.76
2023-02-16T12:16:11.341Z,9.73
2023-02-16T12:17:10.925Z,9.66
2023-02-16T12:18:10.835Z,9.64
2023-02-16T12:19:11.122Z,9.63
2023-02-16T12:20:10.857Z,9.63
2023-02-16T12:21:10.888Z,9.63
2023-02-16T12:22:10.825Z,9.66
2023-02-16T12:23:10.784Z,9.66
2023-02-16T12:24:13.017Z,9.64
2023-02-16T12:25:10.806Z,9.61
2023-02-16T12:26:11.163Z,9.63
2023-02-16T12:27:10.765Z,9.63
2023-02-16T12:28:12.539Z,9.64
2023-02-16T12:29:10.734Z,9.70
2023-02-16T12:30:10.777Z,9.70
2023-02-16T12:31:10.747Z,9.71
2023-02-16T12:32:10.782Z,9.73
2023-02-16T12:33:11.085Z,9.71
2023-02-16T12:34:10.715Z,9.71
2023-02-16T12:35:10.689Z,9.70
2023-02-16T12:36:10.693Z,9.71
2023-02-16T12:37:10.632Z,9.71
2023-02-16T12:38:10.730Z,9.70
2023-02-16T12:39:10.624Z,9.67
2023-02-16T12:40:10.943Z,9.64
2023-02-16T12:41:10.650Z,9.66
2023-02-16T12:42:10.630Z,9.61
2023-02-16T12:43:10.601Z,9.61
2023-02-16T12:44:10.669Z,9.57
2023-02-16T12:45:10.590Z,9.53
2023-02-16T12:46:10.647Z,9.50
2023-02-16T12:47:10.825Z,9.45
2023-02-16T12:48:10.573Z,9.46
2023-02-16T12:49:10.519Z,9.43
2023-02-16T12:50:10.595Z,9.45
2023-02-16T12:51:10.535Z,9.40
2023-02-16T12:52:10.536Z,9.42
2023-02-16T12:53:10.584Z,9.42
2023-02-16T12:54:10.465Z,9.40
2023-02-16T12:55:10.488Z,9.42
2023-02-16T12:56:10.510Z,9.40
2023-02-16T12:57:10.551Z,9.42
2023-02-16T12:58:10.447Z,9.42
2023-02-16T12:59:10.410Z,9.43
2023-02-16T13:00:10.525Z,9.45
2023-02-16T13:01:10.490Z,9.48
2023-02-16T13:02:10.452Z,9.50
2023-02-16T13:03:10.521Z,9.53
2023-02-16T13:04:10.363Z,9.56
2023-02-16T13:05:10.438Z,9.58
2023-02-16T13:06:10.633Z,9.58
2023-02-16T13:07:10.329Z,9.58
2023-02-16T13:08:10.345Z,9.58
2023-02-16T13:09:10.340Z,9.60
2023-02-16T13:10:10.309Z,9.61
2023-02-16T13:11:10.367Z,9.63
2023-02-16T13:12:10.323Z,9.64
2023-02-16T13:13:10.286Z,9.66
2023-02-16T13:14:10.293Z,9.66
2023-02-16T13:15:10.334Z,9.67
2023-02-16T13:16:23.908Z,9.68
2023-02-16T13:17:10.275Z,9.67